createdAt,value
2022-10-04T00:02:54.720Z,12.20
2022-10-04T00:08:03.567Z,12.30
2022-10-04T00:13:16.317Z,12.30
2022-10-04T00:18:29.443Z,12.10
2022-10-04T00:23:45.663Z,12.10
2022-10-04T00:28:50.205Z,11.70
2022-10-04T00:33:55.729Z,11.80
2022-10-04T00:39:38.010Z,11.70
2022-10-04T00:44:47.967Z,11.70
2022-10-04T00:49:57.039Z,11.80
2022-10-04T00:55:07.085Z,11.60
2022-10-04T01:00:15.264Z,11.70
2022-10-04T01:05:50.763Z,11.40
2022-10-04T01:10:59.860Z,11.40
2022-10-04T01:16:07.552Z,11.40
2022-10-04T01:21:23.587Z,11.40
2022-10-04T01:26:40.118Z,11.20
2022-10-04T01:31:46.205Z,11.40
2022-10-04T01:36:52.474Z,11.40
2022-10-04T01:42:02.103Z,11.50
2022-10-04T01:47:09.855Z,11.40
2022-10-04T01:52:19.022Z,11.20
2022-10-04T01:57:27.897Z,11.10
2022-10-04T02:02:37.725Z,11.20
2022-10-04T02:07:42.663Z,11.30
2022-10-04T02:12:50.431Z,11.20
2022-10-04T02:17:55.408Z,11.20
2022-10-04T02:23:03.261Z,11.20
2022-10-04T02:28:11.731Z,11.20
2022-10-04T02:33:14.750Z,11.00
2022-10-04T02:38:23.125Z,10.80
2022-10-04T02:43:33.362Z,10.80
2022-10-04T02:48:40.238Z,10.90
2022-10-04T02:53:51.695Z,10.90
2022-10-04T02:59:01.069Z,10.80
2022-10-04T03:04:08.038Z,10.80
2022-10-04T03:09:11.088Z,10.60
2022-10-04T03:14:20.214Z,10.60
2022-10-04T03:19:26.760Z,10.70
2022-10-04T03:24:32.046Z,10.60
2022-10-04T03:29:40.872Z,10.50
2022-10-04T03:34:53.261Z,10.10
2022-10-04T03:39:58.323Z,10.30
2022-10-04T03:45:06.247Z,10.50
2022-10-04T03:50:17.684Z,10.50
2022-10-04T03:55:21.953Z,10.30
2022-10-04T04:00:26.320Z,10.40
2022-10-04T04:05:44.907Z,10.20
2022-10-04T04:10:51.191Z,9.90
2022-10-04T04:15:56.944Z,10.30
2022-10-04T04:21:02.645Z,10.30
2022-10-04T04:26:17.812Z,10.20
2022-10-04T04:31:25.134Z,10.00
2022-10-04T04:36:29.239Z,9.50
2022-10-04T04:41:35.363Z,9.50
2022-10-04T04:46:40.148Z,9.60
2022-10-04T04:51:47.045Z,9.70
2022-10-04T04:56:52.823Z,9.60
2022-10-04T05:01:57.396Z,9.90
2022-10-04T05:07:03.209Z,9.90
2022-10-04T05:12:09.813Z,9.90
2022-10-04T05:17:24.919Z,9.90
2022-10-04T05:22:29.687Z,9.80
2022-10-04T05:27:37.646Z,9.80
2022-10-04T05:32:54.316Z,9.00
2022-10-04T05:38:04.823Z,8.90
2022-10-04T05:43:23.507Z,9.10
2022-10-04T05:48:27.771Z,9.00
2022-10-04T05:53:33.881Z,9.20
2022-10-04T05:58:51.573Z,9.40
2022-10-04T06:04:28.039Z,9.60
2022-10-04T06:09:53.236Z,9.50
2022-10-04T06:15:08.316Z,9.40
2022-10-04T06:20:50.361Z,9.60
2022-10-04T06:25:59.051Z,9.70
2022-10-04T06:31:20.735Z,9.80
2022-10-04T06:36:44.353Z,9.70
2022-10-04T06:42:11.456Z,9.80
2022-10-04T06:47:27.544Z,9.90
2022-10-04T06:52:44.692Z,9.90
2022-10-04T06:58:08.706Z,9.90
2022-10-04T07:03:15.630Z,10.00
2022-10-04T07:08:32.562Z,10.10
2022-10-04T07:13:45.445Z,10.20
2022-10-04T07:18:58.532Z,10.30
2022-10-04T07:24:03.793Z,10.50
2022-10-04T07:29:21.666Z,10.60
2022-10-04T07:34:30.602Z,10.70
2022-10-04T07:39:44.770Z,10.70
2022-10-04T07:44:56.452Z,10.90
2022-10-04T07:49:59.998Z,11.10
2022-10-04T07:55:15.676Z,11.20
2022-10-04T08:00:22.849Z,11.30
2022-10-04T08:05:35.220Z,11.20
2022-10-04T08:10:49.075Z,11.20
2022-10-04T08:15:53.613Z,11.30
2022-10-04T08:20:59.105Z,11.50
2022-10-04T08:26:19.015Z,11.50
2022-10-04T08:31:34.784Z,11.60
2022-10-04T08:36:49.171Z,11.80
2022-10-04T08:42:32.089Z,11.90
2022-10-04T08:48:10.415Z,12.00
2022-10-04T08:53:40.074Z,12.10
2022-10-04T08:59:15.739Z,12.20
2022-10-04T09:05:01.101Z,12.30
2022-10-04T09:10:35.598Z,12.20
2022-10-04T09:15:54.107Z,12.20
2022-10-04T09:21:04.459Z,12.50
2022-10-04T09:26:20.912Z,12.60
2022-10-04T09:31:39.325Z,12.50
2022-10-04T09:37:14.139Z,12.50
2022-10-04T09:42:33.567Z,12.70
2022-10-04T09:47:49.000Z,12.80
2022-10-04T09:52:59.067Z,12.90
2022-10-04T09:58:25.240Z,13.00
2022-10-04T10:03:54.060Z,13.00
2022-10-04T10:09:10.838Z,13.10
2022-10-04T10:15:00.136Z,13.30
2022-10-04T10:20:27.047Z,13.60
2022-10-04T10:25:47.103Z,13.80
2022-10-04T10:31:10.274Z,14.10
2022-10-04T10:36:25.221Z,14.20
2022-10-04T10:41:54.153Z,14.10
2022-10-04T10:47:08.369Z,14.20
2022-10-04T10:52:59.584Z,14.30
2022-10-04T10:58:41.253Z,14.50
2022-10-04T11:04:04.730Z,14.50
2022-10-04T11:09:57.160Z,14.70
2022-10-04T11:15:26.014Z,14.70
2022-10-04T11:21:12.060Z,14.80
2022-10-04T11:26:56.990Z,15.00
2022-10-04T11:32:36.917Z,14.80
2022-10-04T11:38:00.842Z,14.90
2022-10-04T11:43:19.946Z,15.10
2022-10-04T11:48:35.126Z,15.10
2022-10-04T11:54:03.570Z,15.30
2022-10-04T11:59:19.611Z,15.60
2022-10-04T12:05:12.071Z,15.70
2022-10-04T12:10:28.549Z,15.70
2022-10-04T12:15:54.689Z,15.80
2022-10-04T12:21:40.923Z,15.90
2022-10-04T12:27:25.506Z,16.00
2022-10-04T12:32:37.325Z,16.30
2022-10-04T12:37:54.884Z,16.40
2022-10-04T12:43:08.542Z,16.50
2022-10-04T12:48:44.181Z,16.50
2022-10-04T12:54:02.707Z,16.50
2022-10-04T12:59:31.615Z,16.80
2022-10-04T13:04:39.936Z,16.70
2022-10-04T13:10:19.348Z,16.80
2022-10-04T13:15:28.081Z,17.10
2022-10-04T13:20:41.968Z,17.10
2022-10-04T13:26:08.908Z,17.20
2022-10-04T13:31:23.864Z,17.20
2022-10-04T13:36:37.757Z,17.20
2022-10-04T13:42:01.283Z,17.30
2022-10-04T13:47:25.741Z,17.30
2022-10-04T13:52:59.346Z,17.40
2022-10-04T13:58:15.820Z,17.60
2022-10-04T14:03:36.045Z,17.60
2022-10-04T14:08:56.950Z,17.70
2022-10-04T14:14:33.889Z,17.80
2022-10-04T14:20:08.047Z,17.80
2022-10-04T14:25:50.602Z,17.90
2022-10-04T14:31:17.870Z,18.10
2022-10-04T14:36:57.070Z,18.00
2022-10-04T14:42:19.521Z,18.30
2022-10-04T14:47:49.363Z,18.30
2022-10-04T14:53:07.609Z,18.40
2022-10-04T14:58:22.528Z,18.50
2022-10-04T15:03:36.260Z,18.50
2022-10-04T15:09:02.134Z,18.60
2022-10-04T15:14:21.889Z,18.50
2022-10-04T15:19:30.783Z,18.50
2022-10-04T15:24:47.922Z,18.60
2022-10-04T15:30:03.214Z,18.60
2022-10-04T15:35:23.102Z,18.60
2022-10-04T15:40:37.902Z,18.80
2022-10-04T15:46:27.005Z,18.70
2022-10-04T15:51:48.643Z,18.70
2022-10-04T15:57:00.733Z,18.90
2022-10-04T16:02:48.727Z,18.80
2022-10-04T16:08:41.641Z,18.70
2022-10-04T16:14:33.900Z,18.60
2022-10-04T16:20:06.005Z,18.70
2022-10-04T16:25:37.907Z,18.70
2022-10-04T16:30:48.607Z,18.60
2022-10-04T16:36:06.185Z,18.60
2022-10-04T16:41:19.995Z,18.60
2022-10-04T16:46:32.325Z,18.50
2022-10-04T16:51:57.637Z,18.40
2022-10-04T16:57:22.392Z,18.30
2022-10-04T17:02:43.476Z,18.20
2022-10-04T17:08:20.545Z,18.10
2022-10-04T17:13:33.696Z,17.90
2022-10-04T17:18:51.144Z,17.80
2022-10-04T17:24:14.438Z,17.70
2022-10-04T17:29:34.779Z,17.50
2022-10-04T17:34:51.785Z,17.50
2022-10-04T17:40:08.912Z,17.30
2022-10-04T17:45:47.594Z,17.20
2022-10-04T17:51:17.900Z,17.20
2022-10-04T17:56:31.867Z,17.20
2022-10-04T18:01:43.400Z,17.10
2022-10-04T18:06:53.360Z,17.00
2022-10-04T18:12:00.874Z,17.00
2022-10-04T18:17:06.563Z,16.90
2022-10-04T18:22:16.041Z,16.90
2022-10-04T18:27:22.559Z,16.80
2022-10-04T18:32:37.969Z,16.70
2022-10-04T18:37:40.917Z,16.60
2022-10-04T18:42:52.057Z,16.60
2022-10-04T18:47:57.563Z,16.60
2022-10-04T18:53:43.649Z,16.60
2022-10-04T18:59:22.434Z,16.60
2022-10-04T19:04:42.191Z,16.50
2022-10-04T19:10:07.353Z,16.30
2022-10-04T19:15:23.209Z,16.30
2022-10-04T19:20:36.845Z,16.30
2022-10-04T19:26:03.038Z,16.30
2022-10-04T19:31:18.266Z,16.30
2022-10-04T19:36:46.781Z,16.30
2022-10-04T19:41:57.373Z,16.30
2022-10-04T19:47:06.232Z,16.20
2022-10-04T19:52:27.192Z,16.10
2022-10-04T19:57:38.017Z,15.80
2022-10-04T20:02:47.414Z,15.80
2022-10-04T20:08:01.438Z,15.60
2022-10-04T20:13:24.978Z,15.80
2022-10-04T20:19:01.607Z,15.90
2022-10-04T20:24:16.200Z,15.90
2022-10-04T20:29:58.967Z,15.90
2022-10-04T20:35:04.215Z,15.90
2022-10-04T20:40:09.259Z,15.80
2022-10-04T20:45:27.765Z,15.30
2022-10-04T20:50:38.780Z,15.30
2022-10-04T20:55:45.418Z,15.40
2022-10-04T21:00:53.430Z,15.30
2022-10-04T21:06:05.468Z,15.40
2022-10-04T21:11:20.241Z,15.50
2022-10-04T21:16:51.628Z,15.60
2022-10-04T21:21:54.829Z,15.40
2022-10-04T21:26:59.263Z,15.50
2022-10-04T21:32:02.429Z,15.50
2022-10-04T21:37:05.361Z,15.40
2022-10-04T21:42:09.641Z,15.40
2022-10-04T21:47:12.994Z,15.30
2022-10-04T21:52:17.448Z,15.30
2022-10-04T21:57:24.095Z,15.30
2022-10-04T22:02:27.135Z,15.20
2022-10-04T22:07:30.003Z,15.10
2022-10-04T22:12:34.264Z,15.10
2022-10-04T22:17:40.145Z,14.90
2022-10-04T22:22:42.991Z,14.60
2022-10-04T22:27:48.049Z,14.10
2022-10-04T22:32:51.727Z,14.20
2022-10-04T22:37:54.888Z,14.20
2022-10-04T22:43:00.877Z,14.40
2022-10-04T22:48:12.889Z,14.60
2022-10-04T22:53:19.961Z,14.50
2022-10-04T22:58:24.200Z,14.60
2022-10-04T23:03:31.171Z,14.50
2022-10-04T23:08:34.028Z,14.60
2022-10-04T23:13:39.731Z,14.40
2022-10-04T23:18:42.749Z,14.60
2022-10-04T23:23:45.644Z,14.40
2022-10-04T23:28:49.876Z,14.40
2022-10-04T23:33:54.314Z,14.50
2022-10-04T23:39:01.240Z,14.50
2022-10-04T23:44:11.287Z,14.40
2022-10-04T23:49:16.485Z,14.50
2022-10-04T23:54:20.909Z,14.40
2022-10-04T23:59:27.269Z,14.30
